createdAt,value
2022-11-22T00:00:58.094Z,92.84
2022-11-22T00:03:26.098Z,92.16
2022-11-22T00:05:54.013Z,93.15
2022-11-22T00:08:21.917Z,92.61
2022-11-22T00:10:50.704Z,92.41
2022-11-22T00:13:21.137Z,92.84
2022-11-22T00:15:59.260Z,92.99
2022-11-22T00:18:27.214Z,93.17
2022-11-22T00:20:55.547Z,92.95
2022-11-22T00:23:23.879Z,92.17
2022-11-22T00:25:51.948Z,93.05
2022-11-22T00:28:21.260Z,92.91
2022-11-22T00:30:49.238Z,92.58
2022-11-22T00:33:17.207Z,92.88
2022-11-22T00:35:46.364Z,93.22
2022-11-22T00:38:14.466Z,92.69
2022-11-22T00:40:42.411Z,92.69
2022-11-22T00:43:10.431Z,93.18
2022-11-22T00:45:41.888Z,92.98
2022-11-22T00:48:10.320Z,92.22
2022-11-22T00:50:38.913Z,93.23
2022-11-22T00:53:06.948Z,92.59
2022-11-22T00:55:34.920Z,92.95
2022-11-22T00:58:03.275Z,92.98
2022-11-22T01:00:31.942Z,92.90
2022-11-22T01:03:01.339Z,92.69
2022-11-22T01:05:29.399Z,93.24
2022-11-22T01:07:57.404Z,93.32
2022-11-22T01:10:25.542Z,93.19
2022-11-22T01:12:53.442Z,92.51
2022-11-22T01:15:21.380Z,93.24
2022-11-22T01:17:49.343Z,93.33
2022-11-22T01:20:18.805Z,92.99
2022-11-22T01:22:46.913Z,92.51
2022-11-22T01:25:14.842Z,92.76
2022-11-22T01:27:42.831Z,93.07
2022-11-22T01:30:13.308Z,93.05
2022-11-22T01:32:41.342Z,92.63
2022-11-22T01:35:10.730Z,93.06
2022-11-22T01:37:40.233Z,93.50
2022-11-22T01:40:09.391Z,93.11
2022-11-22T01:42:45.395Z,92.93
2022-11-22T01:45:42.223Z,93.12
2022-11-22T01:48:21.287Z,93.74
2022-11-22T01:50:54.628Z,93.27
2022-11-22T01:53:29.444Z,93.42
2022-11-22T01:56:00.285Z,93.80
2022-11-22T01:58:32.093Z,93.72
2022-11-22T02:01:00.420Z,93.92
2022-11-22T02:03:30.560Z,93.91
2022-11-22T02:05:58.902Z,92.97
2022-11-22T02:08:32.635Z,93.32
2022-11-22T02:11:03.766Z,92.92
2022-11-22T02:13:35.359Z,92.91
2022-11-22T02:16:04.457Z,93.27
2022-11-22T02:18:35.777Z,92.90
2022-11-22T02:21:04.475Z,93.10
2022-11-22T02:23:48.764Z,93.25
2022-11-22T02:26:18.321Z,92.75
2022-11-22T02:28:46.667Z,93.26
2022-11-22T02:31:36.757Z,93.41
2022-11-22T02:34:04.909Z,93.70
2022-11-22T02:36:38.644Z,93.69
2022-11-22T02:39:08.297Z,93.91
2022-11-22T02:41:38.872Z,94.05
2022-11-22T02:44:08.585Z,93.69
2022-11-22T02:46:36.702Z,93.95
2022-11-22T02:49:04.621Z,93.81
2022-11-22T02:51:32.570Z,93.51
2022-11-22T02:54:00.535Z,93.77
2022-11-22T02:56:28.458Z,94.19
2022-11-22T02:58:57.713Z,94.05
2022-11-22T03:01:25.867Z,94.37
2022-11-22T03:03:53.898Z,94.59
2022-11-22T03:06:21.930Z,94.13
2022-11-22T03:08:55.900Z,93.57
2022-11-22T03:11:24.917Z,94.00
2022-11-22T03:13:53.030Z,94.09
2022-11-22T03:16:22.378Z,93.93
2022-11-22T03:18:50.311Z,93.64
2022-11-22T03:21:18.309Z,94.06
2022-11-22T03:23:46.321Z,94.20
2022-11-22T03:26:14.517Z,94.21
2022-11-22T03:28:42.377Z,93.87
2022-11-22T03:31:10.341Z,94.23
2022-11-22T03:33:39.698Z,94.12
2022-11-22T03:36:07.637Z,94.23
2022-11-22T03:38:35.913Z,94.49
2022-11-22T03:41:03.910Z,93.82
2022-11-22T03:43:31.994Z,94.07
2022-11-22T03:46:00.023Z,94.12
2022-11-22T03:48:28.078Z,93.90
2022-11-22T03:51:04.567Z,94.13
2022-11-22T03:53:33.108Z,94.25
2022-11-22T03:56:01.824Z,94.10
2022-11-22T03:58:30.237Z,93.65
2022-11-22T04:00:59.018Z,93.71
2022-11-22T04:03:27.577Z,94.04
2022-11-22T04:05:57.673Z,94.21
2022-11-22T04:08:26.053Z,93.67
2022-11-22T04:10:54.649Z,94.22
2022-11-22T04:13:43.039Z,93.92
2022-11-22T04:16:10.225Z,94.15
2022-11-22T04:18:38.575Z,94.07
2022-11-22T04:21:25.748Z,94.13
2022-11-22T04:24:08.415Z,93.92
2022-11-22T04:26:36.631Z,93.82
2022-11-22T04:29:10.194Z,93.62
2022-11-22T04:31:56.466Z,93.54
2022-11-22T04:34:24.907Z,93.51
2022-11-22T04:36:54.360Z,93.81
2022-11-22T04:39:22.281Z,93.52
2022-11-22T04:42:12.557Z,93.19
2022-11-22T04:44:42.691Z,93.02
2022-11-22T04:47:11.058Z,93.36
2022-11-22T04:49:39.416Z,93.34
2022-11-22T04:52:28.086Z,93.87
2022-11-22T04:54:56.131Z,93.45
2022-11-22T04:57:24.123Z,92.83
2022-11-22T04:59:52.099Z,92.58
2022-11-22T05:02:20.049Z,93.11
2022-11-22T05:04:50.734Z,92.85
2022-11-22T05:07:20.359Z,92.78
2022-11-22T05:09:48.454Z,93.68
2022-11-22T05:12:16.377Z,93.18
2022-11-22T05:14:44.381Z,93.38
2022-11-22T05:17:13.506Z,93.29
2022-11-22T05:19:47.786Z,93.58
2022-11-22T05:22:17.330Z,94.48
2022-11-22T05:24:45.626Z,94.72
2022-11-22T05:27:13.627Z,95.80
2022-11-22T05:29:41.568Z,96.06
2022-11-22T05:32:09.636Z,96.19
2022-11-22T05:34:37.596Z,95.97
2022-11-22T05:37:05.596Z,96.57
2022-11-22T05:39:33.484Z,96.59
2022-11-22T05:42:05.869Z,96.10
2022-11-22T05:44:34.096Z,95.90
2022-11-22T05:47:02.055Z,96.02
2022-11-22T05:49:30.395Z,95.69
2022-11-22T05:51:58.589Z,95.40
2022-11-22T05:54:26.619Z,95.35
2022-11-22T05:56:54.602Z,95.67
2022-11-22T05:59:24.092Z,95.27
2022-11-22T06:01:52.125Z,96.15
2022-11-22T06:04:20.334Z,95.26
2022-11-22T06:06:48.667Z,95.95
2022-11-22T06:09:16.726Z,95.34
2022-11-22T06:11:44.657Z,95.74
2022-11-22T06:14:12.584Z,95.69
2022-11-22T06:16:41.948Z,96.32
2022-11-22T06:19:10.336Z,96.06
2022-11-22T06:21:38.549Z,96.07
2022-11-22T06:24:07.486Z,95.92
2022-11-22T06:26:39.255Z,95.95
2022-11-22T06:29:07.622Z,95.86
2022-11-22T06:31:35.633Z,96.05
2022-11-22T06:34:05.028Z,96.16
2022-11-22T06:36:34.992Z,95.92
2022-11-22T06:39:03.687Z,96.11
2022-11-22T06:41:34.238Z,95.73
2022-11-22T06:44:06.109Z,95.73
2022-11-22T06:46:34.643Z,95.76
2022-11-22T06:49:04.565Z,96.11
2022-11-22T06:51:33.624Z,95.79
2022-11-22T06:54:01.655Z,95.47
2022-11-22T06:56:31.466Z,95.43
2022-11-22T06:59:03.300Z,95.24
2022-11-22T07:01:33.100Z,95.04
2022-11-22T07:04:01.793Z,95.22
2022-11-22T07:06:33.554Z,94.75
2022-11-22T07:09:02.482Z,94.48
2022-11-22T07:11:32.021Z,94.38
2022-11-22T07:14:07.020Z,94.52
2022-11-22T07:16:37.774Z,94.67
2022-11-22T07:19:06.552Z,95.51
2022-11-22T07:21:37.326Z,95.33
2022-11-22T07:24:07.791Z,94.61
2022-11-22T07:26:36.241Z,95.49
2022-11-22T07:29:05.087Z,95.59
2022-11-22T07:31:33.191Z,95.10
2022-11-22T07:34:01.212Z,95.84
2022-11-22T07:36:30.379Z,95.66
2022-11-22T07:38:59.987Z,95.44
2022-11-22T07:41:27.987Z,95.93
2022-11-22T07:43:55.982Z,96.12
2022-11-22T07:46:26.401Z,95.58
2022-11-22T07:48:54.443Z,95.89
2022-11-22T07:51:22.756Z,95.20
2022-11-22T07:53:50.822Z,95.35
2022-11-22T07:56:20.205Z,95.15
2022-11-22T07:58:48.300Z,95.16
2022-11-22T08:01:17.898Z,94.22
2022-11-22T08:03:46.904Z,93.79
2022-11-22T08:06:15.621Z,94.23
2022-11-22T08:08:43.658Z,94.14
2022-11-22T08:11:12.559Z,93.71
2022-11-22T08:13:42.540Z,94.18
2022-11-22T08:16:13.264Z,94.21
2022-11-22T08:18:42.640Z,92.80
2022-11-22T08:21:12.564Z,92.63
2022-11-22T08:23:41.713Z,92.44
2022-11-22T08:26:13.229Z,92.45
2022-11-22T08:28:43.553Z,92.52
2022-11-22T08:31:13.637Z,92.24
2022-11-22T08:33:42.600Z,92.16
2022-11-22T08:36:10.971Z,92.21
2022-11-22T08:38:39.394Z,91.65
2022-11-22T08:41:08.238Z,92.14
2022-11-22T08:43:36.346Z,92.06
2022-11-22T08:46:05.913Z,92.04
2022-11-22T08:48:36.888Z,91.94
2022-11-22T08:51:07.745Z,91.92
2022-11-22T08:53:37.459Z,92.08
2022-11-22T08:56:07.511Z,91.73
2022-11-22T08:58:35.529Z,92.39
2022-11-22T09:01:09.117Z,92.62
2022-11-22T09:03:37.998Z,92.25
2022-11-22T09:09:22.173Z,92.11
2022-11-22T09:11:45.842Z,92.47
2022-11-22T09:14:13.905Z,92.18
2022-11-22T09:16:43.230Z,91.90
2022-11-22T09:19:11.138Z,90.68
2022-11-22T09:21:39.070Z,91.21
2022-11-22T09:24:07.487Z,90.99
2022-11-22T09:26:36.388Z,91.47
2022-11-22T09:29:05.140Z,90.68
2022-11-22T09:31:33.555Z,89.80
2022-11-22T09:34:02.993Z,90.65
2022-11-22T09:36:31.246Z,90.01
2022-11-22T09:38:59.601Z,90.79
2022-11-22T09:42:00.441Z,90.42
2022-11-22T09:44:42.727Z,91.01
2022-11-22T09:47:22.297Z,89.01
2022-11-22T09:50:03.266Z,89.85
2022-11-22T09:52:39.290Z,88.90
2022-11-22T09:55:12.424Z,88.40
2022-11-22T09:57:45.364Z,89.14
2022-11-22T10:00:21.265Z,88.43
2022-11-22T10:03:00.205Z,88.38
2022-11-22T10:05:35.761Z,87.90
2022-11-22T10:08:35.120Z,86.82
2022-11-22T10:11:06.769Z,87.35
2022-11-22T10:13:42.052Z,86.81
2022-11-22T10:16:16.554Z,86.36
2022-11-22T10:18:50.608Z,85.96
2022-11-22T10:21:20.845Z,85.13
2022-11-22T10:23:49.326Z,87.00
2022-11-22T10:26:25.420Z,85.48
2022-11-22T10:29:10.365Z,85.16
2022-11-22T10:31:47.097Z,84.42
2022-11-22T10:34:25.762Z,85.05
2022-11-22T10:37:01.171Z,85.45
2022-11-22T10:39:51.019Z,84.26
2022-11-22T10:42:35.727Z,81.11
2022-11-22T10:48:37.982Z,80.33
2022-11-22T10:51:19.783Z,79.36
2022-11-22T10:54:03.888Z,79.79
2022-11-22T10:56:39.868Z,79.76
2022-11-22T10:59:28.941Z,79.24
2022-11-22T11:02:14.185Z,79.79
2022-11-22T11:04:44.268Z,80.14
2022-11-22T11:07:16.673Z,78.63
2022-11-22T11:12:47.514Z,78.49
2022-11-22T11:15:21.390Z,78.72
2022-11-22T11:17:55.393Z,79.28
2022-11-22T11:20:27.655Z,78.61
2022-11-22T11:25:46.585Z,78.65
2022-11-22T11:28:19.748Z,78.48
2022-11-22T11:30:51.360Z,77.50
2022-11-22T11:33:25.185Z,77.36
2022-11-22T11:35:57.268Z,77.11
2022-11-22T11:38:30.762Z,76.50
2022-11-22T11:41:16.667Z,76.94
2022-11-22T11:43:45.264Z,77.67
2022-11-22T11:46:18.670Z,77.58
2022-11-22T11:48:47.775Z,75.80
2022-11-22T11:51:32.763Z,75.99
2022-11-22T11:54:04.584Z,73.43
2022-11-22T11:56:44.861Z,75.44
2022-11-22T11:59:16.141Z,74.06
2022-11-22T12:01:50.292Z,73.83
2022-11-22T12:04:23.351Z,74.11
2022-11-22T12:07:02.792Z,73.36
2022-11-22T12:09:34.511Z,73.69
2022-11-22T12:12:18.891Z,73.04
2022-11-22T12:15:10.363Z,72.46
2022-11-22T12:17:47.002Z,73.72
2022-11-22T12:20:19.997Z,73.79
2022-11-22T12:23:01.323Z,73.54
2022-11-22T12:25:36.316Z,72.93
2022-11-22T12:28:17.775Z,72.77
2022-11-22T12:30:49.901Z,73.05
2022-11-22T12:33:23.660Z,73.04
2022-11-22T12:35:55.799Z,74.04
2022-11-22T12:38:29.282Z,73.66
2022-11-22T12:41:01.359Z,74.27
2022-11-22T12:43:35.963Z,73.57
2022-11-22T12:46:10.084Z,73.93
2022-11-22T12:48:48.363Z,74.38
2022-11-22T12:51:24.537Z,75.29
2022-11-22T12:53:54.125Z,73.96
2022-11-22T12:56:33.270Z,73.85
2022-11-22T12:59:12.294Z,74.46
2022-11-22T13:01:46.635Z,73.97
2022-11-22T13:04:20.940Z,72.90
2022-11-22T13:06:56.436Z,73.38
2022-11-22T13:09:29.358Z,74.77
2022-11-22T13:12:04.406Z,73.90
2022-11-22T13:14:39.156Z,72.21
2022-11-22T13:17:08.574Z,72.45
2022-11-22T13:24:36.645Z,71.17
2022-11-22T13:27:13.353Z,70.37
2022-11-22T13:29:44.650Z,69.99
2022-11-22T13:32:40.244Z,70.79
2022-11-22T13:36:28.047Z,70.30
2022-11-22T13:49:14.662Z,70.49
2022-11-22T13:51:57.334Z,70.57
2022-11-22T13:55:03.913Z,71.15
2022-11-22T13:57:35.681Z,71.19
2022-11-22T14:00:47.108Z,71.37
2022-11-22T14:03:40.893Z,70.52
2022-11-22T14:06:24.637Z,70.86
2022-11-22T14:09:17.813Z,70.97
2022-11-22T14:11:59.024Z,70.80
2022-11-22T14:14:38.172Z,70.91
2022-11-22T14:17:15.890Z,69.95
2022-11-22T14:19:58.109Z,69.98
2022-11-22T14:22:35.824Z,70.44
2022-11-22T14:25:24.418Z,72.15
2022-11-22T14:27:58.864Z,71.92
2022-11-22T14:31:13.976Z,71.21
2022-11-22T14:34:15.959Z,71.56
2022-11-22T14:36:44.800Z,72.00
2022-11-22T14:39:53.365Z,72.20
2022-11-22T14:42:48.229Z,72.34
2022-11-22T14:45:23.412Z,73.22
2022-11-22T14:48:04.383Z,72.88
2022-11-22T15:03:29.251Z,72.71
2022-11-22T15:09:18.604Z,73.15
2022-11-22T15:09:33.415Z,73.02
2022-11-22T15:12:10.742Z,73.42
2022-11-22T15:59:10.661Z,76.44
2022-11-22T16:01:41.162Z,76.24
2022-11-22T16:04:22.712Z,76.17
2022-11-22T16:06:52.149Z,76.65
2022-11-22T16:09:28.080Z,75.67
2022-11-22T16:12:01.528Z,76.05
2022-11-22T16:14:45.046Z,76.28
2022-11-22T16:17:33.189Z,76.62
2022-11-22T16:20:27.346Z,76.62
2022-11-22T16:23:15.734Z,75.72
2022-11-22T16:25:47.141Z,76.35
2022-11-22T16:28:29.634Z,76.49
2022-11-22T16:30:59.538Z,76.53
2022-11-22T16:33:27.794Z,76.59
2022-11-22T16:35:57.568Z,76.83
2022-11-22T16:38:26.701Z,76.82
2022-11-22T16:40:58.633Z,77.71
2022-11-22T16:43:28.373Z,77.11
2022-11-22T16:49:59.751Z,77.01
2022-11-22T16:57:33.392Z,77.98
2022-11-22T17:00:15.728Z,78.12
2022-11-22T17:02:51.394Z,78.06
2022-11-22T17:05:25.584Z,78.21
2022-11-22T17:17:32.625Z,79.46
2022-11-22T17:20:00.577Z,79.83
2022-11-22T17:22:28.762Z,79.68
2022-11-22T17:24:56.593Z,79.98
2022-11-22T17:27:24.424Z,80.00
2022-11-22T17:29:52.297Z,80.38
2022-11-22T17:32:20.295Z,80.85
2022-11-22T17:34:49.599Z,81.26
2022-11-22T17:37:17.427Z,80.76
2022-11-22T17:39:45.322Z,80.93
2022-11-22T17:42:15.225Z,81.00
2022-11-22T17:44:43.095Z,82.22
2022-11-22T17:47:10.994Z,82.16
2022-11-22T17:49:38.856Z,82.08
2022-11-22T17:52:08.156Z,82.27
2022-11-22T17:54:36.131Z,82.48
2022-11-22T17:57:04.108Z,82.95
2022-11-22T17:59:32.200Z,83.07
2022-11-22T18:02:00.194Z,83.47
2022-11-22T18:04:28.339Z,83.30
2022-11-22T18:06:56.352Z,83.39
2022-11-22T18:09:25.605Z,83.79
2022-11-22T18:11:53.441Z,83.51
2022-11-22T18:14:22.171Z,84.20
2022-11-22T18:16:50.354Z,83.65
2022-11-22T18:19:18.294Z,84.28
2022-11-22T18:21:46.277Z,84.17
2022-11-22T18:24:14.182Z,84.87
2022-11-22T18:26:43.493Z,84.75
2022-11-22T18:32:01.870Z,85.22
2022-11-22T18:34:30.652Z,85.73
2022-11-22T18:37:03.898Z,84.83
2022-11-22T18:39:46.946Z,85.04
2022-11-22T18:42:17.029Z,85.64
2022-11-22T18:46:55.682Z,84.73
2022-11-22T18:49:23.832Z,85.24
2022-11-22T18:51:51.721Z,85.63
2022-11-22T18:54:21.639Z,86.11
2022-11-22T18:56:49.712Z,85.56
2022-11-22T18:59:17.925Z,85.25
2022-11-22T19:01:45.819Z,85.48
2022-11-22T19:04:15.380Z,85.52
2022-11-22T19:06:44.001Z,85.56
2022-11-22T19:09:12.189Z,85.31
2022-11-22T19:11:40.544Z,85.67
2022-11-22T19:14:08.541Z,85.03
2022-11-22T19:16:36.534Z,85.42
2022-11-22T19:19:04.919Z,85.56
2022-11-22T19:21:34.327Z,85.19
2022-11-22T19:24:02.231Z,84.93
2022-11-22T19:26:30.218Z,85.58
2022-11-22T19:29:02.574Z,85.73
2022-11-22T19:31:31.423Z,85.11
2022-11-22T19:34:00.333Z,85.27
2022-11-22T19:36:34.085Z,85.10
2022-11-22T19:39:06.291Z,85.86
2022-11-22T19:41:35.275Z,85.82
2022-11-22T19:44:03.350Z,85.61
2022-11-22T19:46:32.968Z,85.94
2022-11-22T19:49:02.606Z,85.80
2022-11-22T19:51:32.351Z,85.95
2022-11-22T19:54:03.013Z,85.94
2022-11-22T19:56:34.175Z,86.20
2022-11-22T19:59:04.441Z,85.79
2022-11-22T20:01:34.660Z,86.10
2022-11-22T20:04:04.479Z,86.36
2022-11-22T20:06:34.052Z,86.21
2022-11-22T20:09:03.804Z,86.34
2022-11-22T20:11:34.086Z,86.18
2022-11-22T20:14:02.033Z,85.78
2022-11-22T20:16:31.720Z,86.15
2022-11-22T20:19:01.677Z,86.32
2022-11-22T20:21:32.146Z,86.35
2022-11-22T20:24:01.256Z,86.06
2022-11-22T20:26:31.071Z,86.44
2022-11-22T20:29:02.531Z,86.51
2022-11-22T20:31:32.233Z,86.67
2022-11-22T20:34:01.447Z,86.06
2022-11-22T20:36:30.823Z,86.40
2022-11-22T20:38:59.208Z,86.58
2022-11-22T20:41:29.435Z,86.62
2022-11-22T20:43:57.937Z,86.87
2022-11-22T20:46:28.434Z,87.03
2022-11-22T20:48:58.161Z,86.92
2022-11-22T20:51:27.499Z,86.54
2022-11-22T20:53:55.897Z,87.03
2022-11-22T20:56:24.126Z,86.46
2022-11-22T20:58:52.372Z,86.41
2022-11-22T21:01:23.115Z,86.71
2022-11-22T21:03:53.093Z,86.54
2022-11-22T21:06:22.870Z,86.55
2022-11-22T21:08:51.090Z,86.50
2022-11-22T21:11:21.003Z,85.92
2022-11-22T21:13:49.842Z,86.03
2022-11-22T21:16:23.920Z,85.95
2022-11-22T21:18:54.823Z,85.94
2022-11-22T21:21:24.094Z,86.17
2022-11-22T21:23:53.180Z,86.38
2022-11-22T21:26:21.527Z,86.22
2022-11-22T21:28:50.251Z,86.15
2022-11-22T21:31:19.860Z,86.71
2022-11-22T21:33:48.454Z,86.60
2022-11-22T21:36:18.774Z,86.57
2022-11-22T21:38:46.704Z,86.63
2022-11-22T21:44:04.637Z,86.58
2022-11-22T21:46:32.636Z,86.83
2022-11-22T21:49:00.475Z,86.75
2022-11-22T21:51:29.851Z,86.98
2022-11-22T21:53:58.820Z,87.01
2022-11-22T21:56:27.319Z,86.95
2022-11-22T21:58:55.245Z,87.50
2022-11-22T22:01:23.662Z,86.82
2022-11-22T22:03:51.912Z,87.83
2022-11-22T22:06:20.124Z,88.06
2022-11-22T22:08:49.715Z,87.83
2022-11-22T22:11:17.690Z,88.12
2022-11-22T22:13:45.635Z,87.96
2022-11-22T22:16:18.732Z,88.19
2022-11-22T22:18:47.269Z,88.22
2022-11-22T22:21:15.959Z,88.01
2022-11-22T22:23:44.892Z,88.01
2022-11-22T22:26:16.077Z,88.15
2022-11-22T22:28:45.254Z,88.45
2022-11-22T22:31:17.130Z,88.15
2022-11-22T22:33:46.622Z,88.22
2022-11-22T22:36:15.143Z,88.27
2022-11-22T22:38:43.106Z,88.38
2022-11-22T22:41:12.427Z,88.38
2022-11-22T22:43:43.376Z,88.11
2022-11-22T22:46:13.401Z,88.03
2022-11-22T22:48:42.253Z,87.93
2022-11-22T22:51:13.344Z,88.00
2022-11-22T22:53:42.149Z,87.94
2022-11-22T22:56:11.585Z,87.77
2022-11-22T22:58:41.109Z,87.90
2022-11-22T23:01:10.383Z,87.49
2022-11-22T23:03:38.907Z,87.50
2022-11-22T23:06:08.821Z,87.78
2022-11-22T23:08:37.234Z,87.53
2022-11-22T23:11:06.918Z,87.89
2022-11-22T23:13:36.303Z,87.71
2022-11-22T23:16:07.055Z,87.46
2022-11-22T23:18:37.015Z,87.01
2022-11-22T23:21:06.814Z,87.37
2022-11-22T23:23:35.423Z,87.77
2022-11-22T23:26:04.279Z,87.12
2022-11-22T23:34:12.122Z,87.30
2022-11-22T23:36:41.517Z,88.21
2022-11-22T23:39:10.171Z,88.00
2022-11-22T23:41:38.277Z,88.83
2022-11-22T23:44:06.562Z,88.77
2022-11-22T23:46:34.459Z,89.20
2022-11-22T23:49:03.007Z,89.50
2022-11-22T23:51:32.628Z,89.66
2022-11-22T23:54:04.240Z,89.01
2022-11-22T23:56:33.535Z,88.98
2022-11-22T23:59:03.008Z,88.55
